createdAt,value
2022-11-18T00:00:16.187Z,6.05
2022-11-18T00:03:17.675Z,6.05
2022-11-18T00:06:20.331Z,6.00
2022-11-18T00:09:21.825Z,5.98
2022-11-18T00:12:42.200Z,5.97
2022-11-18T00:15:45.225Z,5.99
2022-11-18T00:18:46.853Z,6.00
2022-11-18T00:21:48.597Z,5.98
2022-11-18T00:24:50.142Z,6.04
2022-11-18T00:27:51.567Z,6.05
2022-11-18T00:31:00.004Z,6.02
2022-11-18T00:34:01.509Z,5.99
2022-11-18T00:37:03.310Z,6.00
2022-11-18T00:40:05.293Z,5.96
2022-11-18T00:43:06.779Z,6.02
2022-11-18T00:46:11.092Z,6.03
2022-11-18T00:49:12.799Z,6.03
2022-11-18T00:52:14.385Z,6.02
2022-11-18T00:55:17.954Z,6.01
2022-11-18T00:58:19.446Z,6.04
2022-11-18T01:01:22.387Z,6.03
2022-11-18T01:04:23.862Z,6.04
2022-11-18T01:07:25.494Z,6.04
2022-11-18T01:10:27.003Z,6.05
2022-11-18T01:13:29.200Z,6.03
2022-11-18T01:16:32.258Z,6.03
2022-11-18T01:19:34.029Z,6.06
2022-11-18T01:22:35.587Z,6.03
2022-11-18T01:25:37.959Z,6.00
2022-11-18T01:28:39.744Z,5.97
2022-11-18T01:32:01.868Z,5.93
2022-11-18T01:35:04.239Z,5.92
2022-11-18T01:38:06.730Z,5.96
2022-11-18T01:41:08.247Z,5.92
2022-11-18T01:44:24.550Z,5.96
2022-11-18T01:47:29.347Z,5.88
2022-11-18T01:50:31.843Z,5.90
2022-11-18T01:53:35.340Z,5.91
2022-11-18T01:56:38.742Z,5.94
2022-11-18T01:59:42.361Z,5.96
2022-11-18T02:02:45.843Z,5.96
2022-11-18T02:05:47.863Z,5.98
2022-11-18T02:08:49.833Z,5.97
2022-11-18T02:11:51.998Z,5.92
2022-11-18T02:14:53.775Z,5.96
2022-11-18T02:18:00.448Z,5.99
2022-11-18T02:21:06.154Z,6.01
2022-11-18T02:24:27.280Z,6.03
2022-11-18T02:27:55.889Z,6.04
2022-11-18T02:31:00.748Z,6.06
2022-11-18T02:34:06.601Z,6.03
2022-11-18T02:37:12.619Z,6.01
2022-11-18T02:40:16.759Z,6.04
2022-11-18T02:43:20.233Z,6.07
2022-11-18T02:46:25.473Z,6.08
2022-11-18T02:49:29.614Z,6.08
2022-11-18T02:52:32.874Z,6.05
2022-11-18T02:55:36.650Z,6.05
2022-11-18T02:58:38.278Z,5.99
2022-11-18T03:01:41.483Z,6.01
2022-11-18T03:04:43.726Z,6.04
2022-11-18T03:07:47.882Z,5.99
2022-11-18T03:10:52.822Z,5.95
2022-11-18T03:14:02.907Z,5.96
2022-11-18T03:17:09.918Z,5.93
2022-11-18T03:20:15.357Z,5.95
2022-11-18T03:23:21.003Z,5.89
2022-11-18T03:26:25.691Z,5.89
2022-11-18T03:29:30.649Z,5.89
2022-11-18T03:32:36.921Z,5.90
2022-11-18T03:35:41.249Z,5.83
2022-11-18T03:38:47.306Z,5.76
2022-11-18T03:41:53.404Z,5.77
2022-11-18T03:44:56.977Z,5.80
2022-11-18T03:48:02.522Z,5.82
2022-11-18T03:51:06.727Z,5.82
2022-11-18T03:54:10.107Z,5.85
2022-11-18T03:57:17.045Z,5.86
2022-11-18T04:00:20.278Z,5.81
2022-11-18T04:03:26.030Z,5.79
2022-11-18T04:06:31.927Z,5.77
2022-11-18T04:09:36.173Z,5.68
2022-11-18T04:12:39.506Z,5.65
2022-11-18T04:15:42.078Z,5.64
2022-11-18T04:18:45.181Z,5.58
2022-11-18T04:21:47.642Z,5.59
2022-11-18T04:24:49.422Z,5.63
2022-11-18T04:27:51.066Z,5.63
2022-11-18T04:30:52.578Z,5.62
2022-11-18T04:33:55.526Z,5.65
2022-11-18T04:36:57.236Z,5.62
2022-11-18T04:39:58.895Z,5.63
2022-11-18T04:43:00.378Z,5.61
2022-11-18T04:46:01.847Z,5.60
2022-11-18T04:49:04.733Z,5.62
2022-11-18T04:52:06.616Z,5.62
2022-11-18T04:55:08.665Z,5.60
2022-11-18T04:58:11.866Z,5.60
2022-11-18T05:01:13.788Z,5.61
2022-11-18T05:04:18.980Z,5.61
2022-11-18T05:07:20.603Z,5.56
2022-11-18T05:10:22.455Z,5.51
2022-11-18T05:13:27.009Z,5.44
2022-11-18T05:16:28.803Z,5.40
2022-11-18T05:19:31.773Z,5.43
2022-11-18T05:22:33.455Z,5.43
2022-11-18T05:25:35.857Z,5.42
2022-11-18T05:28:37.731Z,5.42
2022-11-18T05:31:39.345Z,5.42
2022-11-18T05:34:42.635Z,5.42
2022-11-18T05:37:44.305Z,5.38
2022-11-18T05:40:46.362Z,5.36
2022-11-18T05:43:47.866Z,5.38
2022-11-18T05:46:49.346Z,5.31
2022-11-18T05:49:52.218Z,5.31
2022-11-18T05:52:53.857Z,5.34
2022-11-18T05:55:57.035Z,5.33
2022-11-18T05:58:58.456Z,5.29
2022-11-18T06:02:03.549Z,5.29
2022-11-18T06:05:07.287Z,5.26
2022-11-18T06:08:10.450Z,5.26
2022-11-18T06:11:14.650Z,5.29
2022-11-18T06:14:17.062Z,5.29
2022-11-18T06:17:20.502Z,5.29
2022-11-18T06:20:23.721Z,5.22
2022-11-18T06:23:25.436Z,5.17
2022-11-18T06:26:27.262Z,5.15
2022-11-18T06:29:29.143Z,5.14
2022-11-18T06:32:30.886Z,5.15
2022-11-18T06:35:33.777Z,5.18
2022-11-18T06:38:35.175Z,5.16
2022-11-18T06:41:36.812Z,5.14
2022-11-18T06:44:38.419Z,5.12
2022-11-18T06:47:40.090Z,5.09
2022-11-18T06:50:42.952Z,5.12
2022-11-18T06:53:45.570Z,5.10
2022-11-18T06:56:47.433Z,5.09
2022-11-18T06:59:48.970Z,5.12
2022-11-18T07:02:50.470Z,5.12
2022-11-18T07:05:53.371Z,5.10
2022-11-18T07:08:55.430Z,5.01
2022-11-18T07:11:57.116Z,4.95
2022-11-18T07:14:58.709Z,4.94
2022-11-18T07:18:00.496Z,4.93
2022-11-18T07:21:04.287Z,4.92
2022-11-18T07:24:07.095Z,4.91
2022-11-18T07:27:09.023Z,4.92
2022-11-18T07:30:11.143Z,4.92
2022-11-18T07:33:12.637Z,4.95
2022-11-18T07:36:16.574Z,4.98
2022-11-18T07:39:18.580Z,5.00
2022-11-18T07:42:20.302Z,4.97
2022-11-18T07:45:21.761Z,4.91
2022-11-18T07:48:23.466Z,4.87
2022-11-18T07:51:27.410Z,4.84
2022-11-18T07:54:28.869Z,4.86
2022-11-18T07:57:30.425Z,4.87
2022-11-18T08:00:32.482Z,4.89
2022-11-18T08:03:37.100Z,4.88
2022-11-18T08:06:40.301Z,4.89
2022-11-18T08:09:41.867Z,4.87
2022-11-18T08:12:43.406Z,4.74
2022-11-18T08:15:45.061Z,4.65
2022-11-18T08:18:47.070Z,4.68
2022-11-18T08:21:49.894Z,4.66
2022-11-18T08:24:51.392Z,4.66
2022-11-18T08:27:52.858Z,4.66
2022-11-18T08:30:54.418Z,4.61
2022-11-18T08:33:56.163Z,4.62
2022-11-18T08:36:59.133Z,4.65
2022-11-18T08:40:00.618Z,4.61
2022-11-18T08:43:02.209Z,4.56
2022-11-18T08:46:03.717Z,4.56
2022-11-18T08:49:05.386Z,4.57
2022-11-18T08:52:08.338Z,4.63
2022-11-18T08:55:10.017Z,4.66
2022-11-18T08:58:11.709Z,4.65
2022-11-18T09:01:13.400Z,4.68
2022-11-18T09:04:14.958Z,4.64
2022-11-18T09:07:17.912Z,4.58
2022-11-18T09:10:19.591Z,4.60
2022-11-18T09:16:42.797Z,4.63
2022-11-18T09:19:48.333Z,4.62
2022-11-18T09:22:51.595Z,4.63
2022-11-18T09:25:57.491Z,4.58
2022-11-18T09:28:59.560Z,4.57
2022-11-18T09:32:02.161Z,4.62
2022-11-18T09:35:03.786Z,4.62
2022-11-18T09:38:06.617Z,4.63
2022-11-18T09:41:16.133Z,4.57
2022-11-18T09:44:25.687Z,4.48
2022-11-18T09:47:28.086Z,4.41
2022-11-18T09:53:52.834Z,4.34
2022-11-18T09:56:55.632Z,4.43
2022-11-18T09:59:58.142Z,4.38
2022-11-18T10:03:01.963Z,4.39
2022-11-18T10:06:07.059Z,4.33
2022-11-18T10:09:21.009Z,4.31
2022-11-18T10:12:25.334Z,4.33
2022-11-18T10:15:29.542Z,4.33
2022-11-18T10:18:59.215Z,4.29
2022-11-18T10:22:16.777Z,4.32
2022-11-18T10:25:22.593Z,4.30
2022-11-18T10:28:25.025Z,4.31
2022-11-18T10:31:26.626Z,4.28
2022-11-18T10:34:28.247Z,4.27
2022-11-18T10:38:00.229Z,4.29
2022-11-18T10:41:00.420Z,4.32
2022-11-18T10:44:02.095Z,4.27
2022-11-18T10:47:24.444Z,4.19
2022-11-18T10:50:31.038Z,4.12
2022-11-18T10:53:33.726Z,4.11
2022-11-18T10:56:46.038Z,4.10
2022-11-18T10:59:48.472Z,4.08
2022-11-18T11:02:49.978Z,4.05
2022-11-18T11:06:06.349Z,4.04
2022-11-18T11:09:09.015Z,4.03
2022-11-18T11:12:14.988Z,4.02
2022-11-18T11:15:18.285Z,3.90
2022-11-18T11:18:39.984Z,3.89
2022-11-18T11:21:41.658Z,3.86
2022-11-18T11:24:43.337Z,3.85
2022-11-18T11:31:16.993Z,3.76
2022-11-18T11:34:24.898Z,3.78
2022-11-18T11:37:31.172Z,3.77
2022-11-18T11:40:35.386Z,3.73
2022-11-18T11:43:45.766Z,3.63
2022-11-18T11:47:13.364Z,3.59
2022-11-18T11:50:21.810Z,3.53
2022-11-18T11:53:29.513Z,3.55
2022-11-18T11:56:33.987Z,3.53
2022-11-18T11:59:44.891Z,3.48
2022-11-18T12:03:01.733Z,3.47
2022-11-18T12:06:03.503Z,3.51
2022-11-18T12:09:09.541Z,3.50
2022-11-18T12:12:32.794Z,3.45
2022-11-18T12:15:50.337Z,3.46
2022-11-18T12:18:56.536Z,3.40
2022-11-18T12:22:00.501Z,3.37
2022-11-18T12:25:28.104Z,3.33
2022-11-18T12:28:31.330Z,3.18
2022-11-18T12:31:35.432Z,3.14
2022-11-18T12:34:39.795Z,3.07
2022-11-18T12:37:46.127Z,2.98
2022-11-18T12:40:52.562Z,3.02
2022-11-18T12:44:09.593Z,3.04
2022-11-18T12:47:12.903Z,3.00
2022-11-18T12:50:16.818Z,2.97
2022-11-18T12:53:31.140Z,2.98
2022-11-18T12:56:34.759Z,2.96
2022-11-18T12:59:37.431Z,2.94
2022-11-18T13:02:50.505Z,2.92
2022-11-18T13:05:58.647Z,2.93
2022-11-18T13:09:01.369Z,2.91
2022-11-18T13:12:04.825Z,2.91
2022-11-18T13:15:30.123Z,2.77
2022-11-18T13:18:33.606Z,2.74
2022-11-18T13:21:53.898Z,2.73
2022-11-18T13:24:55.414Z,2.75
2022-11-18T13:28:04.018Z,2.75
2022-11-18T13:31:09.766Z,2.72
2022-11-18T13:34:19.246Z,2.64
2022-11-18T13:37:22.393Z,2.60
2022-11-18T13:40:25.943Z,2.57
2022-11-18T13:43:27.385Z,2.54
2022-11-18T13:46:28.982Z,2.49
2022-11-18T13:49:37.540Z,2.48
2022-11-18T13:52:40.401Z,2.46
2022-11-18T13:55:45.562Z,2.43
2022-11-18T14:02:15.122Z,2.37
2022-11-18T14:05:21.645Z,2.36
2022-11-18T14:08:26.647Z,2.32
2022-11-18T14:11:34.667Z,2.26
2022-11-18T14:14:37.583Z,2.28
2022-11-18T14:17:49.303Z,2.23
2022-11-18T14:20:55.271Z,2.14
2022-11-18T14:23:57.328Z,2.10
2022-11-18T14:26:58.862Z,2.07
2022-11-18T14:30:00.382Z,2.03
2022-11-18T14:33:12.610Z,2.02
2022-11-18T14:36:16.086Z,1.94
2022-11-18T14:39:27.504Z,1.89
2022-11-18T14:42:29.498Z,1.84
2022-11-18T14:45:31.477Z,1.75
2022-11-18T14:48:33.124Z,1.79
2022-11-18T14:51:35.989Z,1.83
2022-11-18T14:54:37.587Z,1.87
2022-11-18T14:57:39.349Z,1.86
2022-11-18T15:00:41.297Z,1.80
2022-11-18T15:03:42.957Z,1.75
2022-11-18T15:06:45.804Z,1.77
2022-11-18T15:09:47.268Z,1.79
2022-11-18T15:12:48.829Z,1.79
2022-11-18T15:15:50.266Z,1.81
2022-11-18T15:18:53.110Z,1.77
2022-11-18T15:21:55.968Z,1.69
2022-11-18T15:24:57.735Z,1.67
2022-11-18T15:27:59.205Z,1.57
2022-11-18T15:31:00.743Z,1.56
2022-11-18T15:34:06.519Z,1.56
2022-11-18T15:37:11.881Z,1.43
2022-11-18T15:40:13.453Z,1.41
2022-11-18T15:43:15.195Z,1.39
2022-11-18T15:46:19.152Z,1.34
2022-11-18T15:49:20.758Z,1.27
2022-11-18T15:52:23.951Z,1.29
2022-11-18T15:55:25.417Z,1.29
2022-11-18T15:58:30.326Z,1.29
2022-11-18T16:01:36.777Z,1.28
2022-11-18T16:04:38.912Z,1.21
2022-11-18T16:07:41.919Z,1.22
2022-11-18T16:11:02.036Z,1.20
2022-11-18T16:14:04.187Z,1.08
2022-11-18T16:17:05.934Z,1.07
2022-11-18T16:20:07.790Z,1.11
2022-11-18T16:23:10.737Z,1.13
2022-11-18T16:26:17.226Z,1.12
2022-11-18T16:29:19.423Z,1.14
2022-11-18T16:32:21.290Z,1.02
2022-11-18T16:35:22.829Z,0.97
2022-11-18T16:38:25.958Z,0.94
2022-11-18T16:41:33.547Z,0.95
2022-11-18T16:44:35.452Z,0.93
2022-11-18T16:47:38.601Z,0.88
2022-11-18T16:50:40.085Z,0.90
2022-11-18T16:53:43.210Z,0.85
2022-11-18T16:56:45.499Z,0.86
2022-11-18T16:59:47.022Z,0.83
2022-11-18T17:02:48.583Z,0.71
2022-11-18T17:05:50.531Z,0.72
2022-11-18T17:08:54.472Z,0.69
2022-11-18T17:11:56.316Z,0.71
2022-11-18T17:15:00.933Z,0.71
2022-11-18T17:18:03.133Z,0.70
2022-11-18T17:21:05.481Z,0.68
2022-11-18T17:24:09.226Z,0.67
2022-11-18T17:27:10.742Z,0.61
2022-11-18T17:30:12.826Z,0.58
2022-11-18T17:33:14.445Z,0.41
2022-11-18T17:36:17.101Z,0.35
2022-11-18T17:39:20.809Z,0.28
2022-11-18T17:42:25.726Z,0.29
2022-11-18T17:45:27.271Z,0.21
2022-11-18T17:48:31.691Z,0.25
2022-11-18T17:51:33.157Z,0.27
2022-11-18T17:54:36.244Z,0.18
2022-11-18T17:57:37.649Z,0.13
2022-11-18T18:00:40.024Z,0.08
2022-11-18T18:03:41.579Z,0.12
2022-11-18T18:06:43.343Z,0.16
2022-11-18T18:09:46.216Z,0.11
2022-11-18T18:13:06.410Z,0.03
2022-11-18T18:16:08.415Z,0.03
2022-11-18T18:19:11.141Z,-0.03
2022-11-18T18:22:12.999Z,-0.02
2022-11-18T18:25:16.192Z,0.01
2022-11-18T18:28:17.856Z,0.02
2022-11-18T18:31:19.716Z,-0.01
2022-11-18T18:34:22.512Z,-0.01
2022-11-18T18:37:24.215Z,0.03
2022-11-18T18:40:27.325Z,0.00
2022-11-18T18:43:29.090Z,-0.05
2022-11-18T18:46:33.811Z,-0.08
2022-11-18T18:49:35.501Z,-0.09
2022-11-18T18:52:40.371Z,-0.06
2022-11-18T18:55:45.056Z,-0.11
2022-11-18T18:58:47.089Z,-0.13
2022-11-18T19:01:48.749Z,-0.11
2022-11-18T19:04:50.489Z,-0.16
2022-11-18T19:07:52.277Z,-0.21
2022-11-18T19:10:55.393Z,-0.20
2022-11-18T19:13:59.706Z,-0.21
2022-11-18T19:17:08.171Z,-0.22
2022-11-18T19:20:31.558Z,-0.21
2022-11-18T19:23:35.431Z,-0.22
2022-11-18T19:26:39.012Z,-0.21
2022-11-18T19:29:40.790Z,-0.21
2022-11-18T19:32:42.479Z,-0.21
2022-11-18T19:35:43.999Z,-0.22
2022-11-18T19:38:48.339Z,-0.22
2022-11-18T19:41:51.281Z,-0.25
2022-11-18T19:44:52.777Z,-0.30
2022-11-18T19:47:54.401Z,-0.37
2022-11-18T19:51:04.624Z,-0.38
2022-11-18T19:54:06.255Z,-0.37
2022-11-18T19:57:09.112Z,-0.35
2022-11-18T20:00:11.241Z,-0.32
2022-11-18T20:03:12.737Z,-0.37
2022-11-18T20:06:16.481Z,-0.36
2022-11-18T20:09:18.778Z,-0.37
2022-11-18T20:12:21.830Z,-0.38
2022-11-18T20:15:23.318Z,-0.41
2022-11-18T20:18:25.310Z,-0.38
2022-11-18T20:21:28.375Z,-0.42
2022-11-18T20:24:32.267Z,-0.44
2022-11-18T20:27:35.156Z,-0.39
2022-11-18T20:30:37.303Z,-0.41
2022-11-18T20:33:40.317Z,-0.36
2022-11-18T20:36:42.310Z,-0.44
2022-11-18T20:39:43.886Z,-0.41
2022-11-18T20:43:05.574Z,-0.46
2022-11-18T20:46:08.197Z,-0.44
2022-11-18T20:49:09.698Z,-0.52
2022-11-18T20:52:11.341Z,-0.56
2022-11-18T20:55:12.899Z,-0.52
2022-11-18T20:58:16.035Z,-0.49
2022-11-18T21:01:18.714Z,-0.55
2022-11-18T21:04:20.351Z,-0.51
2022-11-18T21:07:21.938Z,-0.47
2022-11-18T21:10:23.550Z,-0.46
2022-11-18T21:13:45.043Z,-0.48
2022-11-18T21:16:46.924Z,-0.53
2022-11-18T21:19:48.691Z,-0.57
2022-11-18T21:22:50.219Z,-0.53
2022-11-18T21:25:51.800Z,-0.53
2022-11-18T21:28:55.898Z,-0.54
2022-11-18T21:32:01.723Z,-0.51
2022-11-18T21:35:03.602Z,-0.59
2022-11-18T21:38:05.790Z,-0.63
2022-11-18T21:41:08.061Z,-0.65
2022-11-18T21:44:12.274Z,-0.64
2022-11-18T21:47:14.006Z,-0.64
2022-11-18T21:50:15.890Z,-0.61
2022-11-18T21:53:20.598Z,-0.59
2022-11-18T21:56:23.405Z,-0.68
2022-11-18T21:59:27.075Z,-0.65
2022-11-18T22:02:28.607Z,-0.57
2022-11-18T22:05:30.141Z,-0.59
2022-11-18T22:08:31.705Z,-0.61
2022-11-18T22:11:33.351Z,-0.53
2022-11-18T22:14:36.570Z,-0.52
2022-11-18T22:17:38.112Z,-0.57
2022-11-18T22:20:41.107Z,-0.55
2022-11-18T22:23:42.997Z,-0.54
2022-11-18T22:26:44.525Z,-0.59
2022-11-18T22:29:47.568Z,-0.58
2022-11-18T22:32:49.013Z,-0.62
2022-11-18T22:35:50.521Z,-0.57
2022-11-18T22:38:52.816Z,-0.60
2022-11-18T22:42:12.770Z,-0.66
2022-11-18T22:45:16.499Z,-0.62
2022-11-18T22:48:18.414Z,-0.67
2022-11-18T22:51:19.900Z,-0.67
2022-11-18T22:57:44.447Z,-0.63
2022-11-18T23:00:47.931Z,-0.55
2022-11-18T23:03:51.410Z,-0.59
2022-11-18T23:06:52.949Z,-0.54
2022-11-18T23:09:54.535Z,-0.53
2022-11-18T23:13:14.747Z,-0.57
2022-11-18T23:16:21.306Z,-0.59
2022-11-18T23:19:23.279Z,-0.57
2022-11-18T23:22:24.867Z,-0.59
2022-11-18T23:25:26.490Z,-0.60
2022-11-18T23:28:28.224Z,-0.59
2022-11-18T23:31:31.363Z,-0.59
2022-11-18T23:34:32.903Z,-0.63
2022-11-18T23:37:34.556Z,-0.67
2022-11-18T23:40:36.252Z,-0.67
2022-11-18T23:43:38.174Z,-0.66
2022-11-18T23:46:41.255Z,-0.68
2022-11-18T23:49:43.039Z,-0.72
2022-11-18T23:52:46.388Z,-0.64
2022-11-18T23:55:47.785Z,-0.59
2022-11-18T23:58:50.711Z,-0.61
